Time;durP1;ratioP1;P1;durP2;ratioP2;P2;SDS_P1;SDS_P2;PMS_P1;PMS_P2;Temp;Humidity;BMP_temperature;BMP_pressure;BME280_temperature;BME280_humidity;BME280_pressure;Samples;Min_cycle;Max_cycle;Signal;HPM_P1;HPM_P2
2022/07/29 00:01:21;;;;;;;0.10;0.10;;;14.60;99.90;;;;;;5131967;28;20048;-88
2022/07/29 00:03:48;;;;;;;0.10;0.10;;;14.60;99.90;;;;;;5131458;28;20046;-85
2022/07/29 00:06:15;;;;;;;0.10;0.10;;;14.50;99.90;;;;;;5149340;28;20057;-88
2022/07/29 00:08:42;;;;;;;0.10;0.10;;;14.50;99.90;;;;;;5164932;27;20040;-88
2022/07/29 00:11:09;;;;;;;0.05;0.05;;;14.50;99.90;;;;;;5131927;28;20377;-88
2022/07/29 00:13:35;;;;;;;0.22;0.10;;;14.40;99.90;;;;;;5131854;28;20031;-88
2022/07/29 00:16:02;;;;;;;0.10;0.10;;;14.40;99.90;;;;;;5130903;28;20144;-84
2022/07/29 00:18:29;;;;;;;0.10;0.10;;;14.40;99.90;;;;;;5165142;27;20039;-84
2022/07/29 00:20:56;;;;;;;0.05;0.05;;;14.40;99.90;;;;;;5147788;28;20104;-84
2022/07/29 00:23:23;;;;;;;0.10;0.10;;;14.30;99.90;;;;;;5148607;28;20131;-89
2022/07/29 00:25:49;;;;;;;0.05;0.05;;;14.30;99.90;;;;;;5131380;28;20046;-89
2022/07/29 00:28:16;;;;;;;0.10;0.10;;;14.30;99.90;;;;;;5131718;28;20044;-84
2022/07/29 00:30:43;;;;;;;0.20;0.10;;;14.30;99.90;;;;;;5147517;28;20067;-85
2022/07/29 00:33:10;;;;;;;0.10;0.10;;;14.30;99.90;;;;;;5148790;28;20035;-89
2022/07/29 00:35:46;;;;;;;0.10;0.10;;;14.30;99.90;;;;;;5148180;28;20500;-84
2022/07/29 00:38:14;;;;;;;0.10;0.10;;;14.30;99.90;;;;;;5131575;28;20039;-88
2022/07/29 00:40:42;;;;;;;0.10;0.10;;;14.20;99.90;;;;;;5131323;28;20035;-84
2022/07/29 00:43:08;;;;;;;0.40;0.20;;;14.20;99.90;;;;;;5130189;28;20099;-84
2022/07/29 00:45:35;;;;;;;0.10;0.10;;;14.20;99.90;;;;;;5148087;28;20079;-88
2022/07/29 00:48:04;;;;;;;0.10;0.10;;;14.20;99.90;;;;;;5130873;28;20448;-84
2022/07/29 00:50:32;;;;;;;0.10;0.10;;;14.20;99.90;;;;;;5131188;28;20028;-88
2022/07/29 00:52:59;;;;;;;0.08;0.08;;;14.20;99.90;;;;;;5131097;28;20039;-88
2022/07/29 00:55:25;;;;;;;0.00;0.00;;;14.20;99.90;;;;;;5131493;28;20512;-85
2022/07/29 00:57:53;;;;;;;0.08;0.08;;;14.20;99.90;;;;;;5130402;28;20543;-88
2022/07/29 01:00:23;;;;;;;0.10;0.10;;;14.30;99.90;;;;;;5130385;28;20078;-84
2022/07/29 01:02:50;;;;;;;0.10;0.10;;;14.20;99.90;;;;;;5130728;28;20055;-88
2022/07/29 01:05:19;;;;;;;0.20;0.20;;;14.20;99.90;;;;;;5130030;28;20039;-85
2022/07/29 01:07:48;;;;;;;0.20;0.13;;;14.30;99.90;;;;;;5130530;28;20071;-89
2022/07/29 01:10:15;;;;;;;0.10;0.10;;;14.30;99.90;;;;;;5130432;28;20043;-88
2022/07/29 01:12:44;;;;;;;0.10;0.10;;;14.30;99.90;;;;;;5147251;28;20046;-84
2022/07/29 01:15:11;;;;;;;0.10;0.10;;;14.30;99.90;;;;;;5147146;28;20096;-89
2022/07/29 01:17:47;;;;;;;0.03;0.03;;;14.30;99.90;;;;;;5147173;28;20048;-88
2022/07/29 01:20:17;;;;;;;;;;;14.30;99.90;;;;;;5164930;27;20130;-84
2022/07/29 01:23:05;;;;;;;0.00;0.00;;;14.30;99.90;;;;;;5131085;28;19923;-89
2022/07/29 01:25:58;;;;;;;0.17;0.10;;;14.30;99.90;;;;;;5164135;27;20044;-88
2022/07/29 01:29:15;;;;;;;0.10;0.10;;;14.30;99.90;;;;;;5129419;28;20147;-89
2022/07/29 01:31:48;;;;;;;0.00;0.00;;;14.30;99.90;;;;;;5048120;28;20084;-88
2022/07/29 01:34:24;;;;;;;0.05;0.05;;;14.30;99.90;;;;;;5115200;28;20043;-84
2022/07/29 01:37:01;;;;;;;0.10;0.10;;;14.30;99.90;;;;;;5129776;28;20046;-88
2022/07/29 01:39:32;;;;;;;0.10;0.10;;;14.30;99.90;;;;;;5130300;28;20039;-89
2022/07/29 01:42:06;;;;;;;0.13;0.10;;;14.30;99.90;;;;;;5129364;28;20040;-84
2022/07/29 01:45:00;;;;;;;0.10;0.10;;;14.30;99.90;;;;;;5164505;27;20083;-89
2022/07/29 01:47:42;;;;;;;0.00;0.00;;;14.30;99.90;;;;;;5129710;28;20089;-89
2022/07/29 01:50:14;;;;;;;0.10;0.10;;;14.30;99.90;;;;;;5129721;28;20040;-89
2022/07/29 01:52:52;;;;;;;0.05;0.00;;;14.30;99.90;;;;;;5129901;28;20094;-85
2022/07/29 01:55:22;;;;;;;0.00;0.00;;;14.30;99.90;;;;;;5129701;28;20039;-84
2022/07/29 01:57:50;;;;;;;0.10;0.10;;;14.30;99.90;;;;;;5129376;28;20047;-88
2022/07/29 02:00:17;;;;;;;0.10;0.10;;;14.40;99.90;;;;;;5129236;28;20077;-84
2022/07/29 02:02:47;;;;;;;0.20;0.20;;;14.40;99.90;;;;;;5146857;28;20055;-89
2022/07/29 02:05:16;;;;;;;0.10;0.10;;;14.40;99.90;;;;;;5130359;28;20046;-89
2022/07/29 02:07:46;;;;;;;0.10;0.10;;;14.40;99.90;;;;;;5129634;28;20044;-84
2022/07/29 02:10:14;;;;;;;0.10;0.10;;;14.40;99.90;;;;;;5146679;28;20123;-89
2022/07/29 02:12:42;;;;;;;0.10;0.10;;;14.50;99.90;;;;;;5163934;28;20054;-88
2022/07/29 02:15:11;;;;;;;0.28;0.13;;;14.50;99.90;;;;;;5129592;28;20035;-88
2022/07/29 02:17:48;;;;;;;0.20;0.20;;;14.50;99.90;;;;;;5146574;28;20155;-88
2022/07/29 02:20:16;;;;;;;0.00;0.00;;;14.50;99.90;;;;;;5129552;28;20092;-89
2022/07/29 02:22:44;;;;;;;0.10;0.10;;;14.50;99.90;;;;;;5129913;28;20131;-88
2022/07/29 02:25:13;;;;;;;0.08;0.08;;;14.40;99.90;;;;;;5128819;28;20077;-84
2022/07/29 02:27:41;;;;;;;0.20;0.10;;;14.40;99.90;;;;;;5146135;28;20048;-89
2022/07/29 02:30:09;;;;;;;0.00;0.00;;;14.40;99.90;;;;;;5145918;28;20122;-84
2022/07/29 02:32:39;;;;;;;0.10;0.10;;;14.40;99.90;;;;;;5129528;28;20044;-88
2022/07/29 02:35:08;;;;;;;0.13;0.13;;;14.40;99.90;;;;;;5128953;28;20039;-89
2022/07/29 02:37:37;;;;;;;0.20;0.10;;;14.40;99.90;;;;;;5146087;28;20523;-85
2022/07/29 02:40:07;;;;;;;0.15;0.10;;;14.40;99.90;;;;;;5146144;28;20043;-84
2022/07/29 02:42:36;;;;;;;0.10;0.10;;;14.50;99.90;;;;;;5130026;28;20051;-89
2022/07/29 02:45:04;;;;;;;0.05;0.00;;;14.40;99.90;;;;;;5145188;28;20058;-84
2022/07/29 02:47:39;;;;;;;0.00;0.00;;;14.40;99.90;;;;;;5146425;28;20108;-89
2022/07/29 02:50:12;;;;;;;0.63;0.20;;;14.40;99.90;;;;;;5129338;28;20036;-89
2022/07/29 02:52:47;;;;;;;0.03;0.03;;;14.40;99.90;;;;;;5162914;28;20075;-84
2022/07/29 02:55:37;;;;;;;0.10;0.10;;;14.50;99.90;;;;;;5132765;28;20035;-89
2022/07/29 02:58:17;;;;;;;0.00;0.00;;;14.40;99.90;;;;;;5166696;27;20040;-84
2022/07/29 03:00:47;;;;;;;0.05;0.05;;;14.40;99.90;;;;;;5149865;28;20048;-88
2022/07/29 03:03:17;;;;;;;0.20;0.15;;;14.30;99.90;;;;;;5132455;28;20083;-89
2022/07/29 03:05:43;;;;;;;0.20;0.20;;;14.30;99.90;;;;;;5149989;28;20046;-84
2022/07/29 03:08:11;;;;;;;0.17;0.17;;;14.30;99.90;;;;;;5149170;28;20127;-84
2022/07/29 03:10:43;;;;;;;0.22;0.20;;;14.30;99.90;;;;;;5132557;28;20035;-84
2022/07/29 03:13:10;;;;;;;0.20;0.20;;;14.30;99.90;;;;;;5132423;28;20093;-89
2022/07/29 03:15:37;;;;;;;0.20;0.10;;;14.30;99.90;;;;;;5132234;28;20066;-84
2022/07/29 03:18:06;;;;;;;0.10;0.10;;;14.30;99.90;;;;;;5132309;28;20043;-84
2022/07/29 03:20:33;;;;;;;0.00;0.00;;;14.30;99.90;;;;;;5132789;28;20092;-85
2022/07/29 03:22:59;;;;;;;0.10;0.10;;;14.30;99.90;;;;;;5148768;28;20048;-85
2022/07/29 03:25:27;;;;;;;0.32;0.20;;;14.30;99.90;;;;;;5132473;28;20035;-84
2022/07/29 03:27:53;;;;;;;0.00;0.00;;;14.30;99.90;;;;;;5132764;28;20054;-85
2022/07/29 03:30:20;;;;;;;0.00;0.00;;;14.30;99.90;;;;;;5132144;28;20040;-88
2022/07/29 03:32:47;;;;;;;0.10;0.10;;;14.30;99.90;;;;;;5149540;28;20521;-84
2022/07/29 03:35:13;;;;;;;0.32;0.20;;;14.30;99.90;;;;;;5132125;28;20399;-84
2022/07/29 03:37:40;;;;;;;0.10;0.10;;;14.20;99.90;;;;;;5131918;28;20071;-85
2022/07/29 03:40:11;;;;;;;0.20;0.20;;;14.30;99.90;;;;;;5148495;28;20124;-88
2022/07/29 03:42:39;;;;;;;0.32;0.30;;;14.20;99.90;;;;;;5132698;28;20042;-84
2022/07/29 03:45:10;;;;;;;0.10;0.10;;;14.20;99.90;;;;;;5148508;28;20853;-85
2022/07/29 03:47:42;;;;;;;0.25;0.25;;;14.30;99.90;;;;;;5131542;28;20039;-84
2022/07/29 03:50:11;;;;;;;0.22;0.10;;;14.30;99.90;;;;;;5131447;28;20075;-88
2022/07/29 03:52:38;;;;;;;0.08;0.08;;;14.30;99.90;;;;;;5149116;28;20062;-88
2022/07/29 03:55:06;;;;;;;0.10;0.10;;;14.20;99.90;;;;;;5132027;28;20116;-88
2022/07/29 03:57:34;;;;;;;0.00;0.00;;;14.20;99.90;;;;;;5132397;28;20043;-89
2022/07/29 04:00:03;;;;;;;0.45;0.25;;;14.20;99.90;;;;;;5148949;28;20131;-85
2022/07/29 04:02:31;;;;;;;0.00;0.00;;;14.20;99.90;;;;;;5148389;28;20043;-89
2022/07/29 04:04:58;;;;;;;0.10;0.10;;;14.20;99.90;;;;;;5132380;28;20138;-84
2022/07/29 04:07:25;;;;;;;0.10;0.10;;;14.20;99.90;;;;;;5131504;28;20744;-84
2022/07/29 04:09:52;;;;;;;0.22;0.10;;;14.20;99.90;;;;;;5149141;28;20126;-89
2022/07/29 04:12:20;;;;;;;0.55;0.13;;;14.20;99.90;;;;;;5131299;28;20046;-84
2022/07/29 04:14:48;;;;;;;0.10;0.10;;;14.20;99.90;;;;;;5132119;28;20067;-89
2022/07/29 04:17:15;;;;;;;0.03;0.03;;;14.20;99.90;;;;;;5148847;28;20066;-84
2022/07/29 04:19:41;;;;;;;0.00;0.00;;;14.20;99.90;;;;;;5149263;28;20047;-84
2022/07/29 04:22:08;;;;;;;0.10;0.10;;;14.20;99.90;;;;;;5148699;28;20071;-89
2022/07/29 04:24:35;;;;;;;0.10;0.10;;;14.20;99.90;;;;;;5132912;28;20046;-84
2022/07/29 04:27:02;;;;;;;0.38;0.20;;;14.20;99.90;;;;;;5148712;28;20040;-84
2022/07/29 04:29:29;;;;;;;0.10;0.10;;;14.20;99.90;;;;;;5148541;28;20035;-84
2022/07/29 04:31:55;;;;;;;0.03;0.03;;;14.30;99.90;;;;;;5131651;28;20036;-89
2022/07/29 04:34:22;;;;;;;0.10;0.10;;;14.30;99.90;;;;;;5131599;28;20035;-84
2022/07/29 04:36:49;;;;;;;0.10;0.10;;;14.30;99.90;;;;;;5131643;28;20035;-89
2022/07/29 04:39:17;;;;;;;0.10;0.10;;;14.30;99.90;;;;;;5132032;28;20035;-89
2022/07/29 04:41:44;;;;;;;0.17;0.17;;;14.40;99.90;;;;;;5131394;28;20126;-89
2022/07/29 04:44:11;;;;;;;0.13;0.13;;;14.30;99.90;;;;;;5131871;28;20143;-89
2022/07/29 04:46:38;;;;;;;0.25;0.25;;;14.30;99.90;;;;;;5148804;28;20043;-89
2022/07/29 04:49:04;;;;;;;0.03;0.03;;;14.40;99.90;;;;;;5131626;28;20049;-84
2022/07/29 04:51:31;;;;;;;0.00;0.00;;;14.40;99.90;;;;;;5131289;28;20040;-89
2022/07/29 04:53:58;;;;;;;0.10;0.10;;;14.40;99.90;;;;;;5131301;28;20039;-89
2022/07/29 04:56:25;;;;;;;0.17;0.17;;;14.40;99.90;;;;;;5130831;28;20043;-88
2022/07/29 04:58:52;;;;;;;0.20;0.20;;;14.40;99.90;;;;;;5164991;27;20055;-84
2022/07/29 05:01:19;;;;;;;0.03;0.03;;;14.40;99.90;;;;;;5130707;28;20046;-84
2022/07/29 05:03:46;;;;;;;0.10;0.10;;;14.40;99.90;;;;;;5131406;28;20393;-84
2022/07/29 05:06:13;;;;;;;0.10;0.10;;;14.40;99.90;;;;;;5148181;28;20046;-84
2022/07/29 05:08:40;;;;;;;0.22;0.10;;;14.40;99.90;;;;;;5147449;28;20404;-84
2022/07/29 05:11:06;;;;;;;0.30;0.10;;;14.40;99.90;;;;;;5131527;28;20484;-85
2022/07/29 05:13:33;;;;;;;0.10;0.10;;;14.40;99.90;;;;;;5130418;28;20043;-88
2022/07/29 05:16:00;;;;;;;0.75;0.40;;;14.50;99.90;;;;;;5148143;28;20128;-84
2022/07/29 05:18:26;;;;;;;0.20;0.20;;;14.50;99.90;;;;;;5129299;28;20043;-84
2022/07/29 05:20:53;;;;;;;0.10;0.10;;;14.50;99.90;;;;;;5165390;27;20035;-89
2022/07/29 05:23:20;;;;;;;0.30;0.20;;;14.50;99.90;;;;;;5130806;28;20530;-85
2022/07/29 05:25:47;;;;;;;0.10;0.10;;;14.60;99.90;;;;;;5131109;28;20043;-84
2022/07/29 05:28:13;;;;;;;0.10;0.10;;;14.60;99.90;;;;;;5147826;28;20040;-89
2022/07/29 05:30:40;;;;;;;0.10;0.10;;;14.60;99.90;;;;;;5130216;28;20035;-89
2022/07/29 05:33:07;;;;;;;0.10;0.10;;;14.60;99.90;;;;;;5147959;28;20034;-89
2022/07/29 05:35:34;;;;;;;0.10;0.10;;;14.60;99.90;;;;;;5164415;27;20548;-89
2022/07/29 05:38:01;;;;;;;0.10;0.10;;;14.80;99.90;;;;;;5130343;28;20412;-84
2022/07/29 05:40:28;;;;;;;0.10;0.10;;;14.70;99.90;;;;;;5147946;28;20039;-89
2022/07/29 05:42:55;;;;;;;0.30;0.20;;;14.80;99.90;;;;;;5147440;28;20035;-84
2022/07/29 05:45:23;;;;;;;0.10;0.10;;;14.80;99.90;;;;;;5130016;28;20443;-85
2022/07/29 05:47:50;;;;;;;0.10;0.10;;;14.90;99.90;;;;;;5130294;28;20493;-89
2022/07/29 05:50:16;;;;;;;0.15;0.15;;;15.00;99.90;;;;;;5147623;28;20042;-85
2022/07/29 05:52:43;;;;;;;0.10;0.10;;;15.10;99.90;;;;;;5146460;28;20070;-84
2022/07/29 05:55:11;;;;;;;0.10;0.10;;;15.10;99.90;;;;;;5129708;28;20036;-84
2022/07/29 05:57:37;;;;;;;0.10;0.10;;;15.10;99.90;;;;;;5129486;28;20052;-89
2022/07/29 06:00:05;;;;;;;0.10;0.10;;;15.20;99.90;;;;;;5129859;28;20044;-84
2022/07/29 06:02:31;;;;;;;0.00;0.00;;;15.20;99.90;;;;;;5129882;28;20071;-84
2022/07/29 06:04:58;;;;;;;0.05;0.00;;;15.20;99.90;;;;;;5147487;28;20132;-89
2022/07/29 06:07:25;;;;;;;0.10;0.10;;;15.20;99.90;;;;;;5129468;28;20165;-89
2022/07/29 06:09:51;;;;;;;0.10;0.10;;;15.20;99.90;;;;;;5130847;28;20043;-84
2022/07/29 06:12:19;;;;;;;0.20;0.10;;;15.30;99.90;;;;;;5164347;28;20508;-85
2022/07/29 06:14:46;;;;;;;0.30;0.25;;;15.30;99.90;;;;;;5130061;28;20071;-84
2022/07/29 06:17:12;;;;;;;0.00;0.00;;;15.40;99.90;;;;;;5130589;28;20485;-89
2022/07/29 06:19:39;;;;;;;0.45;0.20;;;15.50;99.90;;;;;;5129831;28;20101;-89
2022/07/29 06:22:06;;;;;;;0.05;0.05;;;15.50;99.90;;;;;;5164577;28;20050;-89
2022/07/29 06:24:32;;;;;;;0.10;0.10;;;15.50;99.90;;;;;;5129889;28;20039;-89
2022/07/29 06:26:59;;;;;;;0.85;0.30;;;15.60;99.90;;;;;;5130810;28;20051;-89
2022/07/29 06:29:26;;;;;;;0.10;0.10;;;15.60;99.90;;;;;;5166540;27;20032;-85
2022/07/29 06:31:52;;;;;;;0.10;0.10;;;15.70;99.90;;;;;;5151439;28;20130;-89
2022/07/29 06:34:19;;;;;;;0.10;0.10;;;15.70;99.90;;;;;;5134812;28;20040;-89
2022/07/29 06:36:46;;;;;;;0.35;0.20;;;15.70;99.90;;;;;;5134038;28;20042;-85
2022/07/29 06:39:13;;;;;;;0.10;0.10;;;15.80;99.90;;;;;;5150966;28;20096;-84
2022/07/29 06:41:39;;;;;;;0.57;0.22;;;15.80;99.90;;;;;;5150310;28;20069;-84
2022/07/29 06:44:06;;;;;;;0.10;0.10;;;15.90;99.90;;;;;;5133836;28;20051;-85
2022/07/29 06:46:33;;;;;;;0.30;0.20;;;15.90;99.90;;;;;;5133529;28;20035;-84
2022/07/29 06:49:01;;;;;;;0.20;0.10;;;16.00;99.90;;;;;;5133885;28;20042;-85
2022/07/29 06:51:27;;;;;;;0.05;0.05;;;16.00;99.90;;;;;;5150312;28;20089;-85
2022/07/29 06:53:54;;;;;;;0.10;0.10;;;16.00;99.90;;;;;;5150698;28;20079;-84
2022/07/29 06:56:21;;;;;;;0.10;0.10;;;16.10;99.90;;;;;;5150835;28;20032;-85
2022/07/29 06:58:48;;;;;;;0.25;0.10;;;16.10;99.90;;;;;;5133843;28;20493;-90
2022/07/29 07:01:15;;;;;;;0.40;0.20;;;16.10;99.90;;;;;;5150071;28;20083;-89
2022/07/29 07:03:41;;;;;;;0.20;0.20;;;16.10;99.90;;;;;;5149849;28;20097;-89
2022/07/29 07:06:08;;;;;;;0.20;0.20;;;16.10;99.90;;;;;;5150582;28;20035;-89
2022/07/29 07:08:35;;;;;;;0.22;0.17;;;16.10;99.90;;;;;;5150236;28;20066;-89
2022/07/29 07:11:02;;;;;;;0.30;0.20;;;16.10;99.90;;;;;;5133620;28;20044;-89
2022/07/29 07:13:33;;;;;;;0.10;0.10;;;16.20;99.90;;;;;;5150148;28;20081;-84
2022/07/29 07:16:01;;;;;;;0.00;0.00;;;16.20;99.90;;;;;;5166730;27;20821;-84
2022/07/29 07:18:28;;;;;;;0.32;0.20;;;16.30;99.90;;;;;;5149582;28;20125;-89
2022/07/29 07:20:56;;;;;;;0.10;0.10;;;16.30;99.90;;;;;;5149926;28;20115;-85
2022/07/29 07:23:23;;;;;;;0.45;0.20;;;16.30;99.90;;;;;;5133512;28;20074;-89
2022/07/29 07:25:50;;;;;;;0.20;0.20;;;16.30;99.90;;;;;;5132478;28;20086;-84
2022/07/29 07:28:17;;;;;;;0.20;0.20;;;16.30;99.90;;;;;;5166753;27;20066;-89
2022/07/29 07:30:45;;;;;;;0.15;0.13;;;16.40;99.90;;;;;;5149344;28;20039;-84
2022/07/29 07:33:12;;;;;;;0.25;0.25;;;16.40;99.90;;;;;;5133110;28;20100;-84
2022/07/29 07:35:40;;;;;;;0.32;0.20;;;16.50;99.90;;;;;;5149721;28;20054;-89
2022/07/29 07:38:09;;;;;;;0.10;0.10;;;16.50;99.90;;;;;;5149865;28;20488;-89
2022/07/29 07:40:36;;;;;;;0.20;0.20;;;16.60;99.90;;;;;;5131081;28;20050;-85
2022/07/29 07:43:03;;;;;;;0.10;0.10;;;16.60;99.90;;;;;;5132586;28;20112;-84
2022/07/29 07:45:36;;;;;;;0.17;0.13;;;16.60;99.90;;;;;;5116217;28;20055;-85
2022/07/29 07:48:04;;;;;;;0.30;0.30;;;16.60;99.90;;;;;;5148512;28;20101;-89
2022/07/29 07:50:30;;;;;;;0.10;0.10;;;16.70;99.90;;;;;;5150412;28;20385;-89
2022/07/29 07:52:57;;;;;;;0.45;0.38;;;16.80;99.90;;;;;;5132118;28;20032;-84
2022/07/29 07:55:25;;;;;;;0.08;0.08;;;16.80;99.90;;;;;;5150154;28;20128;-89
2022/07/29 07:57:54;;;;;;;0.38;0.30;;;16.80;99.90;;;;;;5132337;28;20393;-89
2022/07/29 08:00:22;;;;;;;0.55;0.30;;;16.90;99.90;;;;;;5132596;28;20036;-84
2022/07/29 08:02:49;;;;;;;0.15;0.10;;;16.90;99.90;;;;;;5148705;28;20088;-84
2022/07/29 08:05:16;;;;;;;0.30;0.30;;;17.00;99.90;;;;;;5148599;28;20118;-89
2022/07/29 08:07:45;;;;;;;0.20;0.20;;;17.00;99.90;;;;;;5131790;28;20119;-84
2022/07/29 08:10:13;;;;;;;0.17;0.10;;;17.00;99.90;;;;;;5132537;28;20040;-85
2022/07/29 08:12:40;;;;;;;0.40;0.30;;;17.00;99.90;;;;;;5148290;28;20032;-85
2022/07/29 08:15:07;;;;;;;0.20;0.10;;;17.10;99.90;;;;;;5149147;28;20043;-84
2022/07/29 08:17:34;;;;;;;0.20;0.10;;;17.20;99.90;;;;;;5132131;28;20039;-89
2022/07/29 08:20:01;;;;;;;0.43;0.30;;;17.20;99.90;;;;;;5131436;28;20408;-85
2022/07/29 08:22:28;;;;;;;0.20;0.10;;;17.30;99.90;;;;;;5132183;28;20046;-89
2022/07/29 08:24:55;;;;;;;0.10;0.00;;;17.40;99.90;;;;;;5148357;28;20120;-89
2022/07/29 08:27:23;;;;;;;0.17;0.17;;;17.40;99.90;;;;;;5149241;28;20096;-85
2022/07/29 08:29:49;;;;;;;0.15;0.15;;;17.50;99.90;;;;;;5131681;28;20046;-89
2022/07/29 08:32:16;;;;;;;0.10;0.10;;;17.50;99.90;;;;;;5131727;28;20512;-88
2022/07/29 08:34:45;;;;;;;0.10;0.10;;;17.60;99.90;;;;;;5131228;28;20028;-89
2022/07/29 08:37:12;;;;;;;0.70;0.40;;;17.70;99.90;;;;;;5148235;28;20082;-85
2022/07/29 08:39:39;;;;;;;0.10;0.10;;;17.70;99.90;;;;;;5131758;28;20075;-87
2022/07/29 08:42:06;;;;;;;0.15;0.15;;;17.80;99.90;;;;;;5165557;27;20070;-84
2022/07/29 08:44:33;;;;;;;0.20;0.15;;;17.90;99.90;;;;;;5148096;28;20135;-84
2022/07/29 08:47:00;;;;;;;0.25;0.17;;;18.00;99.90;;;;;;5164812;27;20047;-85
2022/07/29 08:49:27;;;;;;;0.32;0.20;;;18.10;99.90;;;;;;5132050;28;20388;-89
2022/07/29 08:51:55;;;;;;;0.20;0.20;;;18.20;99.90;;;;;;5148142;28;20442;-89
2022/07/29 08:54:23;;;;;;;0.45;0.30;;;18.20;99.90;;;;;;5148240;28;20051;-85
2022/07/29 08:56:51;;;;;;;0.25;0.10;;;18.20;99.90;;;;;;5131377;28;20507;-85
2022/07/29 08:59:20;;;;;;;0.32;0.30;;;18.20;99.90;;;;;;5131332;28;20039;-85
2022/07/29 09:01:50;;;;;;;0.10;0.10;;;18.30;99.90;;;;;;5147632;28;20404;-85
2022/07/29 09:04:18;;;;;;;0.10;0.00;;;18.40;99.90;;;;;;5147291;28;20077;-85
2022/07/29 09:06:47;;;;;;;0.30;0.20;;;18.40;99.90;;;;;;5148335;28;20027;-88
2022/07/29 09:09:14;;;;;;;0.63;0.40;;;18.50;99.90;;;;;;5131429;28;20040;-88
2022/07/29 09:11:42;;;;;;;0.10;0.10;;;18.60;99.90;;;;;;5147902;28;20120;-85
2022/07/29 09:14:11;;;;;;;0.22;0.20;;;18.70;99.90;;;;;;5130823;28;20039;-85
2022/07/29 09:16:55;;;;;;;0.38;0.30;;;18.80;99.90;;;;;;5131259;28;20373;-89
2022/07/29 09:19:35;;;;;;;0.17;0.10;;;18.80;99.90;;;;;;5147752;28;20035;-89
2022/07/29 09:22:05;;;;;;;0.20;0.20;;;18.90;99.90;;;;;;5130538;28;20036;-85
2022/07/29 09:24:34;;;;;;;0.08;0.08;;;18.90;99.90;;;;;;5131357;28;20249;-85
2022/07/29 09:27:01;;;;;;;0.20;0.15;;;18.90;99.90;;;;;;5164659;27;20039;-85
2022/07/29 09:29:28;;;;;;;0.32;0.30;;;18.80;99.90;;;;;;5110720;28;20032;-89
2022/07/29 09:31:55;;;;;;;0.22;0.20;;;18.90;99.90;;;;;;5127013;28;20035;-89
2022/07/29 09:34:25;;;;;;;0.20;0.20;;;18.90;99.90;;;;;;5093575;28;20051;-90
2022/07/29 09:36:53;;;;;;;0.10;0.10;;;18.90;99.90;;;;;;5110331;28;20032;-85
2022/07/29 09:39:45;;;;;;;0.47;0.30;;;18.90;99.90;;;;;;5141947;28;20042;-89
2022/07/29 09:42:13;;;;;;;0.47;0.30;;;18.90;99.90;;;;;;5130039;28;20039;-85
2022/07/29 09:44:50;;;;;;;0.22;0.22;;;18.90;99.90;;;;;;5130272;28;20044;-85
2022/07/29 09:47:18;;;;;;;0.82;0.30;;;18.90;99.90;;;;;;5147817;28;20032;-89
2022/07/29 09:49:52;;;;;;;0.20;0.13;;;19.00;99.90;;;;;;5130427;28;20088;-89
2022/07/29 09:52:20;;;;;;;0.10;0.10;;;19.10;99.90;;;;;;5130795;28;20115;-85
2022/07/29 09:54:47;;;;;;;0.17;0.10;;;19.10;99.90;;;;;;5130331;28;20118;-85
2022/07/29 09:57:26;;;;;;;0.10;0.10;;;19.20;99.90;;;;;;5147765;28;20098;-90
2022/07/29 10:00:06;;;;;;;0.22;0.20;;;19.30;99.90;;;;;;5130164;28;20040;-86
2022/07/29 10:02:35;;;;;;;0.30;0.30;;;19.40;99.90;;;;;;5129881;28;20096;-89
2022/07/29 10:05:04;;;;;;;0.40;0.35;;;19.50;99.90;;;;;;5129836;28;20039;-85
2022/07/29 10:07:49;;;;;;;0.45;0.30;;;19.70;99.90;;;;;;5130353;28;20043;-89
2022/07/29 10:10:27;;;;;;;0.22;0.20;;;19.80;99.90;;;;;;5130544;28;20078;-85
2022/07/29 10:13:00;;;;;;;0.75;0.35;;;19.80;99.90;;;;;;5130212;28;20081;-86
2022/07/29 10:15:29;;;;;;;0.10;0.10;;;19.90;99.90;;;;;;5129891;28;20048;-88
2022/07/29 10:17:56;;;;;;;0.25;0.20;;;20.00;99.90;;;;;;5130592;28;20043;-89
2022/07/29 10:20:24;;;;;;;0.82;0.45;;;20.10;99.90;;;;;;5130379;28;20134;-84
2022/07/29 10:22:51;;;;;;;0.20;0.20;;;20.20;99.90;;;;;;5129294;28;20044;-89
2022/07/29 10:25:19;;;;;;;0.15;0.15;;;20.30;99.90;;;;;;5129828;28;20043;-85
2022/07/29 10:27:47;;;;;;;0.20;0.10;;;20.40;99.90;;;;;;5147153;28;20068;-85
2022/07/29 10:30:15;;;;;;;0.28;0.20;;;20.40;99.90;;;;;;5146656;28;20075;-89
2022/07/29 10:33:05;;;;;;;0.10;0.10;;;20.50;99.90;;;;;;5164183;28;20105;-88
2022/07/29 10:35:43;;;;;;;0.35;0.20;;;20.50;99.90;;;;;;5130068;28;20107;-85
2022/07/29 10:38:18;;;;;;;0.20;0.10;;;20.60;99.90;;;;;;5163862;28;20093;-89
2022/07/29 10:43:45;;;;;;;0.40;0.22;;;20.80;99.90;;;;;;5180764;27;20142;-85
2022/07/29 10:46:14;;;;;;;0.70;0.28;;;20.90;99.90;;;;;;5163725;28;20051;-89
2022/07/29 10:49:14;;;;;;;0.22;0.22;;;20.90;99.90;;;;;;5147003;28;20412;-89
2022/07/29 10:52:09;;;;;;;0.25;0.22;;;21.00;99.90;;;;;;5130048;28;20036;-84
2022/07/29 10:54:38;;;;;;;0.17;0.10;;;21.00;99.90;;;;;;5147272;28;20036;-88
2022/07/29 10:57:25;;;;;;;0.47;0.30;;;21.10;99.90;;;;;;5146316;28;20047;-89
2022/07/29 11:00:04;;;;;;;0.20;0.20;;;21.20;99.90;;;;;;5164410;28;20402;-85
2022/07/29 11:02:37;;;;;;;0.30;0.30;;;21.20;99.90;;;;;;5163936;28;20123;-85
2022/07/29 11:05:06;;;;;;;0.70;0.50;;;21.40;99.90;;;;;;5163503;28;20036;-86
2022/07/29 11:07:35;;;;;;;0.43;0.32;;;21.50;99.90;;;;;;5145910;28;20135;-85
2022/07/29 11:10:16;;;;;;;0.70;0.30;;;21.70;99.90;;;;;;5146870;28;20027;-88
2022/07/29 11:12:43;;;;;;;0.30;0.30;;;21.80;99.90;;;;;;5164522;28;20472;-86
2022/07/29 11:15:16;;;;;;;0.30;0.30;;;21.90;99.90;;;;;;5164113;27;20040;-85
2022/07/29 11:17:52;;;;;;;1.45;0.38;;;22.00;99.90;;;;;;5149657;28;20035;-86
2022/07/29 11:20:42;;;;;;;0.50;0.30;;;22.10;99.90;;;;;;5167101;27;20124;-88
2022/07/29 11:23:26;;;;;;;0.25;0.15;;;22.20;99.90;;;;;;5132553;28;20401;-86
2022/07/29 11:26:21;;;;;;;0.28;0.28;;;22.20;99.90;;;;;;5167304;27;20051;-89
2022/07/29 11:28:50;;;;;;;0.22;0.22;;;22.30;99.90;;;;;;5133231;28;20047;-89
2022/07/29 11:31:31;;;;;;;0.30;0.30;;;22.30;99.90;;;;;;5166946;27;20098;-89
2022/07/29 11:34:15;;;;;;;0.57;0.40;;;22.30;99.90;;;;;;5149735;28;20032;-85
2022/07/29 11:37:05;;;;;;;0.10;0.10;;;22.30;99.90;;;;;;5148198;28;20100;-86
2022/07/29 11:39:32;;;;;;;0.47;0.40;;;22.20;99.90;;;;;;5128652;28;20505;-85
2022/07/29 11:42:19;;;;;;;0.30;0.30;;;22.20;99.90;;;;;;5149548;28;20492;-85
2022/07/29 11:45:00;;;;;;;0.20;0.20;;;22.20;99.90;;;;;;5149638;28;20083;-89
2022/07/29 11:47:29;;;;;;;0.63;0.40;;;22.20;99.90;;;;;;5166480;27;20130;-88
2022/07/29 11:49:57;;;;;;;0.65;0.40;;;22.10;99.90;;;;;;5132626;28;20071;-89
2022/07/29 11:52:33;;;;;;;0.35;0.20;;;22.10;99.90;;;;;;5132635;28;20039;-89
2022/07/29 11:55:03;;;;;;;0.40;0.32;;;22.10;99.90;;;;;;5132501;28;20409;-85
2022/07/29 11:57:29;;;;;;;0.25;0.25;;;22.10;99.90;;;;;;5149498;28;20488;-89
2022/07/29 11:59:57;;;;;;;0.20;0.20;;;22.20;99.90;;;;;;5132120;28;20038;-85
2022/07/29 12:02:24;;;;;;;0.20;0.20;;;22.20;99.90;;;;;;5148447;28;20625;-85
2022/07/29 12:04:56;;;;;;;0.70;0.32;;;22.30;99.90;;;;;;5149235;28;20133;-85
2022/07/29 12:07:27;;;;;;;0.10;0.10;;;22.30;99.90;;;;;;5132086;28;20130;-85
2022/07/29 12:09:54;;;;;;;0.77;0.30;;;22.30;99.90;;;;;;5132086;28;20040;-85
2022/07/29 12:12:21;;;;;;;1.27;0.50;;;22.30;99.90;;;;;;5132180;28;20042;-89
2022/07/29 12:14:48;;;;;;;0.38;0.32;;;22.40;99.90;;;;;;5150157;28;20087;-88
2022/07/29 12:17:28;;;;;;;0.70;0.40;;;22.40;99.90;;;;;;5149053;28;20130;-88
2022/07/29 12:19:57;;;;;;;0.30;0.30;;;22.40;99.90;;;;;;5166045;27;20043;-89
2022/07/29 12:22:27;;;;;;;0.20;0.20;;;22.40;99.90;;;;;;5149413;28;20200;-85
2022/07/29 12:24:55;;;;;;;0.40;0.30;;;22.50;99.90;;;;;;5132058;28;20043;-85
2022/07/29 12:27:22;;;;;;;0.32;0.20;;;22.50;99.90;;;;;;5131125;28;20500;-86
2022/07/29 12:30:00;;;;;;;0.65;0.30;;;22.50;99.90;;;;;;5131668;28;20041;-85
2022/07/29 12:32:34;;;;;;;0.10;0.10;;;22.60;99.90;;;;;;5148260;28;20047;-89
2022/07/29 12:35:07;;;;;;;0.30;0.30;;;22.60;99.90;;;;;;5148789;28;20512;-89
2022/07/29 12:37:41;;;;;;;0.30;0.30;;;22.70;99.90;;;;;;5148432;28;20050;-89
2022/07/29 12:40:09;;;;;;;0.22;0.22;;;22.70;99.90;;;;;;5147959;28;20073;-88
2022/07/29 12:42:37;;;;;;;0.35;0.35;;;22.70;99.90;;;;;;5131505;28;20039;-89
2022/07/29 12:45:05;;;;;;;0.70;0.47;;;22.80;99.90;;;;;;5131542;28;20075;-89
2022/07/29 12:47:32;;;;;;;0.35;0.35;;;22.70;99.90;;;;;;5165833;27;20036;-89
2022/07/29 12:50:17;;;;;;;0.30;0.30;;;22.70;99.90;;;;;;5131822;28;20042;-89
2022/07/29 12:52:47;;;;;;;0.20;0.20;;;22.60;99.90;;;;;;5148084;28;20088;-89
2022/07/29 12:55:14;;;;;;;0.52;0.30;;;22.50;99.90;;;;;;5130983;28;20815;-85
2022/07/29 12:57:50;;;;;;;0.30;0.30;;;22.50;99.90;;;;;;5148549;28;20040;-89
2022/07/29 13:00:21;;;;;;;0.35;0.22;;;22.40;99.90;;;;;;5164697;27;20126;-86
2022/07/29 13:02:55;;;;;;;0.40;0.30;;;22.30;99.90;;;;;;5147418;28;20051;-86
2022/07/29 13:05:22;;;;;;;0.25;0.25;;;22.30;99.90;;;;;;5131137;28;20401;-85